createdAt,value
2023-12-23T00:00:16.416Z,100049.03
2023-12-23T00:02:43.386Z,100051.91
2023-12-23T00:05:10.599Z,100035.72
2023-12-23T00:07:37.722Z,100063.50
2023-12-23T00:10:05.866Z,100064.19
2023-12-23T00:12:35.526Z,100053.56
2023-12-23T00:15:02.578Z,100054.41
2023-12-23T00:17:29.787Z,100068.88
2023-12-23T00:19:57.160Z,100079.16
2023-12-23T00:22:24.172Z,100075.44
2023-12-23T00:24:51.127Z,100096.50
2023-12-23T00:27:18.132Z,100089.72
2023-12-23T00:29:47.773Z,100076.47
2023-12-23T00:32:14.755Z,100092.63
2023-12-23T00:34:41.758Z,100092.63
2023-12-23T00:37:08.809Z,100083.53
2023-12-23T00:39:35.764Z,100098.66
2023-12-23T00:42:02.751Z,100104.22
2023-12-23T00:44:29.754Z,100116.00
2023-12-23T00:46:59.338Z,100114.31
2023-12-23T00:49:26.448Z,100116.47
2023-12-23T00:51:53.520Z,100121.00
2023-12-23T00:54:20.530Z,100150.97
2023-12-23T00:56:47.542Z,100130.56
2023-12-23T00:59:14.588Z,100130.53
2023-12-23T01:01:43.228Z,100133.72
2023-12-23T01:04:12.824Z,100126.34
2023-12-23T01:06:39.906Z,100122.28
2023-12-23T01:09:06.979Z,100136.44
2023-12-23T01:11:33.971Z,100145.19
2023-12-23T01:14:01.008Z,100131.56
2023-12-23T01:16:28.108Z,100136.94
2023-12-23T01:18:55.149Z,100143.38
2023-12-23T01:21:24.799Z,100172.16
2023-12-23T01:23:51.813Z,100161.88
2023-12-23T01:26:18.953Z,100171.66
2023-12-23T01:28:46.013Z,100180.06
2023-12-23T01:31:13.016Z,100189.13
2023-12-23T01:33:40.114Z,100178.56
2023-12-23T01:36:07.851Z,100188.81
2023-12-23T01:38:37.519Z,100185.97
2023-12-23T01:41:04.898Z,100180.59
2023-12-23T01:43:31.948Z,100188.31
2023-12-23T01:46:01.417Z,100187.66
2023-12-23T01:48:30.603Z,100185.63
2023-12-23T01:50:59.092Z,100188.81
2023-12-23T01:53:27.752Z,100192.03
2023-12-23T01:55:58.139Z,100200.75
2023-12-23T01:58:25.161Z,100204.44
2023-12-23T02:00:52.553Z,100183.94
2023-12-23T02:03:19.909Z,100189.34
2023-12-23T02:05:47.302Z,100182.78
2023-12-23T02:08:14.916Z,100196.09
2023-12-23T02:10:42.314Z,100192.41
2023-12-23T02:13:22.595Z,100185.84
2023-12-23T02:15:53.924Z,100202.16
2023-12-23T02:18:23.975Z,100182.97
2023-12-23T02:20:55.311Z,100196.97
2023-12-23T02:23:22.484Z,100198.81
2023-12-23T02:25:56.688Z,100210.06
2023-12-23T02:28:25.756Z,100194.59
2023-12-23T02:30:55.179Z,100198.16
2023-12-23T02:33:22.795Z,100194.59
2023-12-23T02:35:50.069Z,100198.16
2023-12-23T02:38:20.854Z,100199.00
2023-12-23T02:40:47.917Z,100197.84
2023-12-23T02:43:14.937Z,100205.56
2023-12-23T02:45:42.007Z,100200.03
2023-12-23T02:48:09.105Z,100194.13
2023-12-23T02:50:36.134Z,100195.78
2023-12-23T02:53:03.262Z,100203.56
2023-12-23T02:55:32.828Z,100197.47
2023-12-23T02:57:59.777Z,100201.19
2023-12-23T03:00:26.816Z,100206.56
2023-12-23T03:02:53.878Z,100201.19
2023-12-23T03:05:20.864Z,100197.00
2023-12-23T03:07:47.958Z,100205.22
2023-12-23T03:10:15.012Z,100204.53
2023-12-23T03:12:44.605Z,100206.88
2023-12-23T03:15:11.683Z,100205.03
2023-12-23T03:17:38.696Z,100186.50
2023-12-23T03:20:07.691Z,100192.56
2023-12-23T03:22:34.790Z,100189.88
2023-12-23T03:25:01.743Z,100200.31
2023-12-23T03:27:28.679Z,100197.97
2023-12-23T03:29:58.236Z,100194.94
2023-12-23T03:32:25.302Z,100190.03
2023-12-23T03:34:52.420Z,100194.56
2023-12-23T03:37:19.535Z,100201.47
2023-12-23T03:39:46.532Z,100190.38
2023-12-23T03:42:13.516Z,100171.53
2023-12-23T03:44:40.584Z,100165.47
2023-12-23T03:47:10.142Z,100167.47
2023-12-23T03:49:37.202Z,100172.69
2023-12-23T03:52:04.749Z,100177.78
2023-12-23T03:54:31.761Z,100171.03
2023-12-23T03:56:58.734Z,100147.31
2023-12-23T03:59:25.797Z,100157.72
2023-12-23T04:01:52.930Z,100173.88
2023-12-23T04:04:22.488Z,100177.94
2023-12-23T04:06:49.473Z,100167.16
2023-12-23T04:09:18.365Z,100182.97
2023-12-23T04:11:45.489Z,100178.94
2023-12-23T04:14:12.607Z,100181.28
2023-12-23T04:16:39.718Z,100175.88
2023-12-23T04:19:06.852Z,100172.88
2023-12-23T04:21:36.727Z,100161.44
2023-12-23T04:24:04.195Z,100170.69
2023-12-23T04:26:31.407Z,100167.00
2023-12-23T04:28:58.519Z,100161.78
2023-12-23T04:31:25.741Z,100158.41
2023-12-23T04:33:52.913Z,100152.31
2023-12-23T04:36:20.118Z,100165.31
2023-12-23T04:38:49.815Z,100161.63
2023-12-23T04:41:17.016Z,100146.13
2023-12-23T04:43:44.153Z,100135.50
2023-12-23T04:46:11.428Z,100148.97
2023-12-23T04:48:38.511Z,100144.09
2023-12-23T04:51:05.935Z,100145.63
2023-12-23T04:53:32.977Z,100135.16
2023-12-23T04:56:02.635Z,100159.06
2023-12-23T04:58:29.647Z,100133.13
2023-12-23T05:00:56.680Z,100150.28
2023-12-23T05:03:23.965Z,100141.72
2023-12-23T05:05:51.101Z,100110.59
2023-12-23T05:08:18.356Z,100143.38
2023-12-23T05:10:45.472Z,100141.19
2023-12-23T05:13:15.768Z,100145.53
2023-12-23T05:15:42.785Z,100147.19
2023-12-23T05:18:09.817Z,100159.09
2023-12-23T05:20:36.958Z,100173.72
2023-12-23T05:23:04.203Z,100163.28
2023-12-23T05:25:31.253Z,100160.22
2023-12-23T05:27:58.286Z,100145.09
2023-12-23T05:30:27.977Z,100143.59
2023-12-23T05:32:55.249Z,100145.59
2023-12-23T05:35:22.566Z,100127.59
2023-12-23T05:37:49.692Z,100117.19
2023-12-23T05:40:16.918Z,100133.34
2023-12-23T05:42:43.978Z,100135.50
2023-12-23T05:45:11.225Z,100135.13
2023-12-23T05:47:40.967Z,100150.28
2023-12-23T05:50:09.241Z,100139.88
2023-12-23T05:52:36.254Z,100130.44
2023-12-23T05:55:03.414Z,100124.03
2023-12-23T05:57:30.382Z,100121.19
2023-12-23T05:59:57.348Z,100113.13
2023-12-23T06:02:24.493Z,100099.81
2023-12-23T06:04:54.112Z,100118.84
2023-12-23T06:07:21.106Z,100134.63
2023-12-23T06:09:48.168Z,100141.38
2023-12-23T06:12:15.174Z,100124.88
2023-12-23T06:14:42.722Z,100122.72
2023-12-23T06:17:09.871Z,100133.97
2023-12-23T06:19:36.885Z,100131.94
2023-12-23T06:22:06.550Z,100131.09
2023-12-23T06:24:33.536Z,100110.44
2023-12-23T06:27:00.561Z,100118.19
2023-12-23T06:29:27.585Z,100099.34
2023-12-23T06:31:54.815Z,100113.16
2023-12-23T06:34:21.784Z,100128.31
2023-12-23T06:36:48.709Z,100114.00
2023-12-23T06:39:18.292Z,100129.69
2023-12-23T06:41:47.930Z,100116.72
2023-12-23T06:44:15.234Z,100137.56
2023-12-23T06:46:42.245Z,100117.56
2023-12-23T06:49:09.342Z,100118.91
2023-12-23T06:51:36.372Z,100130.69
2023-12-23T06:54:03.355Z,100115.84
2023-12-23T06:56:32.976Z,100129.78
2023-12-23T06:58:59.987Z,100135.97
2023-12-23T07:01:36.315Z,100124.38
2023-12-23T07:04:03.439Z,100125.53
2023-12-23T07:06:30.522Z,100129.22
2023-12-23T07:08:57.541Z,100119.44
2023-12-23T07:11:25.337Z,100121.75
2023-12-23T07:13:55.059Z,100111.00
2023-12-23T07:16:22.109Z,100125.22
2023-12-23T07:18:49.122Z,100112.97
2023-12-23T07:21:16.133Z,100156.44
2023-12-23T07:23:43.145Z,100143.69
2023-12-23T07:26:12.472Z,100118.09
2023-12-23T07:28:39.557Z,100118.28
2023-12-23T07:31:09.249Z,100130.03
2023-12-23T07:33:36.291Z,100114.59
2023-12-23T07:36:03.662Z,100125.66
2023-12-23T07:38:31.007Z,100124.97
2023-12-23T07:40:58.202Z,100125.50
2023-12-23T07:43:25.236Z,100118.28
2023-12-23T07:45:52.270Z,100150.53
2023-12-23T07:48:21.856Z,100138.94
2023-12-23T07:50:48.913Z,100123.28
2023-12-23T07:53:16.092Z,100138.41
2023-12-23T07:55:43.199Z,100127.97
2023-12-23T07:58:10.194Z,100138.56
2023-12-23T08:00:37.319Z,100137.19
2023-12-23T08:03:04.884Z,100141.09
2023-12-23T08:05:34.520Z,100146.81
2023-12-23T08:08:01.616Z,100156.06
2023-12-23T08:10:28.642Z,100150.22
2023-12-23T08:12:55.652Z,100164.66
2023-12-23T08:15:22.654Z,100172.94
2023-12-23T08:17:49.844Z,100160.00
2023-12-23T08:20:17.074Z,100153.38
2023-12-23T08:22:46.870Z,100160.09
2023-12-23T08:25:13.982Z,100146.00
2023-12-23T08:27:41.127Z,100146.69
2023-12-23T08:30:09.598Z,100156.13
2023-12-23T08:32:36.787Z,100165.22
2023-12-23T08:35:04.207Z,100136.66
2023-12-23T08:37:31.186Z,100140.72
2023-12-23T08:40:00.761Z,100133.34
2023-12-23T08:42:27.714Z,100151.47
2023-12-23T08:44:54.936Z,100166.47
2023-12-23T08:47:22.015Z,100161.06
2023-12-23T08:49:49.001Z,100148.63
2023-12-23T08:52:16.066Z,100179.06
2023-12-23T08:54:43.038Z,100204.97
2023-12-23T08:57:12.688Z,100168.59
2023-12-23T08:59:39.650Z,100158.19
2023-12-23T09:02:06.729Z,100173.53
2023-12-23T09:04:33.761Z,100161.06
2023-12-23T09:07:01.042Z,100163.78
2023-12-23T09:09:28.042Z,100177.25
2023-12-23T09:11:55.072Z,100194.41
2023-12-23T09:14:24.821Z,100197.09
2023-12-23T09:16:51.919Z,100202.31
2023-12-23T09:19:19.010Z,100206.31
2023-12-23T09:21:46.046Z,100211.69
2023-12-23T09:24:13.158Z,100192.88
2023-12-23T09:26:40.140Z,100198.75
2023-12-23T09:29:07.156Z,100212.19
2023-12-23T09:31:36.782Z,100209.50
2023-12-23T09:34:04.055Z,100213.53
2023-12-23T09:36:31.256Z,100200.44
2023-12-23T09:38:58.343Z,100196.94
2023-12-23T09:41:25.580Z,100199.25
2023-12-23T09:43:53.786Z,100193.91
2023-12-23T09:46:20.975Z,100201.94
2023-12-23T09:48:50.947Z,100203.13
2023-12-23T09:51:18.104Z,100202.59
2023-12-23T09:53:48.074Z,100203.91
2023-12-23T09:56:15.366Z,100213.97
2023-12-23T09:58:44.750Z,100212.97
2023-12-23T10:01:12.127Z,100216.97
2023-12-23T10:03:39.240Z,100222.69
2023-12-23T10:06:12.473Z,100220.66
2023-12-23T10:08:40.211Z,100231.44
2023-12-23T10:11:07.261Z,100225.19
2023-12-23T10:13:34.300Z,100225.75
2023-12-23T10:16:01.394Z,100227.38
2023-12-23T10:18:28.563Z,100228.38
2023-12-23T10:20:55.669Z,100207.06
2023-12-23T10:23:25.381Z,100210.56
2023-12-23T10:25:52.902Z,100208.41
2023-12-23T10:28:20.987Z,100209.25
2023-12-23T10:30:49.289Z,100197.84
2023-12-23T10:33:18.325Z,100222.06
2023-12-23T10:35:46.722Z,100202.53
2023-12-23T10:38:16.658Z,100194.81
2023-12-23T10:40:52.213Z,100183.22
2023-12-23T10:43:20.938Z,100182.41
2023-12-23T10:45:49.623Z,100180.38
2023-12-23T10:48:18.171Z,100178.41
2023-12-23T10:50:49.015Z,100202.88
2023-12-23T10:53:18.629Z,100176.13
2023-12-23T10:55:49.091Z,100186.69
2023-12-23T10:58:19.624Z,100186.41
2023-12-23T11:00:46.674Z,100201.88
2023-12-23T11:03:14.485Z,100191.66
2023-12-23T11:05:43.739Z,100196.50
2023-12-23T11:08:17.696Z,100196.84
2023-12-23T11:10:49.414Z,100188.44
2023-12-23T11:13:16.948Z,100224.41
2023-12-23T11:15:43.983Z,100204.59
2023-12-23T11:18:11.362Z,100187.13
2023-12-23T11:20:45.804Z,100221.16
2023-12-23T11:23:34.814Z,100184.78
2023-12-23T11:26:05.219Z,100196.56
2023-12-23T11:28:35.896Z,100198.25
2023-12-23T11:31:04.597Z,100209.00
2023-12-23T11:33:34.841Z,100197.09
2023-12-23T11:36:03.170Z,100192.38
2023-12-23T11:38:45.314Z,100198.59
2023-12-23T11:41:15.704Z,100194.25
2023-12-23T11:43:45.744Z,100190.75
2023-12-23T11:46:13.705Z,100208.75
2023-12-23T11:48:41.354Z,100202.31
2023-12-23T11:51:08.955Z,100211.06
2023-12-23T11:53:36.224Z,100217.47
2023-12-23T11:56:05.432Z,100219.66
2023-12-23T11:58:35.176Z,100210.09
2023-12-23T12:01:02.283Z,100193.63
2023-12-23T12:03:29.413Z,100220.22
2023-12-23T12:05:57.255Z,100216.22
2023-12-23T12:08:26.978Z,100215.16
2023-12-23T12:10:54.976Z,100212.13
2023-12-23T12:13:22.075Z,100213.13
2023-12-23T12:15:51.788Z,100209.13
2023-12-23T12:18:18.862Z,100202.03
2023-12-23T12:20:46.377Z,100196.63
2023-12-23T12:23:13.436Z,100200.63
2023-12-23T12:25:40.993Z,100199.25
2023-12-23T12:28:08.071Z,100193.56
2023-12-23T12:30:35.119Z,100185.34
2023-12-23T12:33:04.859Z,100182.47
2023-12-23T12:35:31.938Z,100189.88
2023-12-23T12:38:02.800Z,100185.53
2023-12-23T12:40:35.017Z,100191.56
2023-12-23T12:43:05.771Z,100188.06
2023-12-23T12:45:37.923Z,100175.47
2023-12-23T12:48:10.166Z,100180.00
2023-12-23T12:50:39.569Z,100178.47
2023-12-23T12:53:06.614Z,100204.72
2023-12-23T12:55:33.799Z,100199.34
2023-12-23T12:58:00.807Z,100202.19
2023-12-23T13:00:27.799Z,100202.38
2023-12-23T13:02:55.099Z,100191.09
2023-12-23T13:05:24.861Z,100187.56
2023-12-23T13:07:51.991Z,100171.41
2023-12-23T13:10:19.120Z,100159.00
2023-12-23T13:12:46.183Z,100169.09
2023-12-23T13:15:13.188Z,100166.75
2023-12-23T13:17:40.562Z,100184.59
2023-12-23T13:20:09.239Z,100191.03
2023-12-23T13:22:39.217Z,100191.38
2023-12-23T13:25:07.485Z,100190.81
2023-12-23T13:27:34.595Z,100206.81
2023-12-23T13:30:01.703Z,100205.50
2023-12-23T13:32:28.915Z,100224.81
2023-12-23T13:34:57.005Z,100200.63
2023-12-23T13:37:24.075Z,100195.91
2023-12-23T13:39:53.760Z,100204.81
2023-12-23T13:42:20.857Z,100194.88
2023-12-23T13:44:48.031Z,100185.44
2023-12-23T13:47:15.293Z,100197.25
2023-12-23T13:49:42.402Z,100198.94
2023-12-23T13:52:09.554Z,100195.44
2023-12-23T13:54:36.998Z,100220.16
2023-12-23T13:57:06.677Z,100236.13
2023-12-23T13:59:33.654Z,100232.75
2023-12-23T14:02:00.877Z,100211.03
2023-12-23T14:04:27.954Z,100223.28
2023-12-23T14:06:54.920Z,100225.75
2023-12-23T14:09:21.928Z,100228.44
2023-12-23T14:11:48.940Z,100233.00
2023-12-23T14:14:18.686Z,100240.06
2023-12-23T14:16:45.750Z,100249.81
2023-12-23T14:19:12.974Z,100244.47
2023-12-23T14:21:39.974Z,100239.44
2023-12-23T14:24:07.295Z,100245.81
2023-12-23T14:26:34.454Z,100247.66
2023-12-23T14:29:01.517Z,100253.53
2023-12-23T14:31:31.309Z,100256.25
2023-12-23T14:33:58.564Z,100258.63
2023-12-23T14:36:25.973Z,100249.84
2023-12-23T14:38:53.526Z,100251.34
2023-12-23T14:41:20.641Z,100263.81
2023-12-23T14:43:47.757Z,100277.13
2023-12-23T14:46:14.811Z,100275.94
2023-12-23T14:48:44.516Z,100294.31
2023-12-23T14:51:11.536Z,100297.47
2023-12-23T14:53:38.658Z,100294.09
2023-12-23T14:56:06.056Z,100276.78
2023-12-23T14:58:33.064Z,100294.91
2023-12-23T15:01:00.048Z,100301.66
2023-12-23T15:03:27.181Z,100294.91
2023-12-23T15:05:56.889Z,100306.03
2023-12-23T15:08:24.011Z,100298.09
2023-12-23T15:10:51.035Z,100286.19
2023-12-23T15:13:17.987Z,100293.25
2023-12-23T15:15:44.962Z,100313.75
2023-12-23T15:18:14.382Z,100296.94
2023-12-23T15:20:41.447Z,100301.84
2023-12-23T15:23:11.097Z,100300.50
2023-12-23T15:25:38.299Z,100299.31
2023-12-23T15:28:05.508Z,100295.63
2023-12-23T15:30:32.553Z,100302.53
2023-12-23T15:32:59.698Z,100298.84
2023-12-23T15:35:26.774Z,100294.97
2023-12-23T15:37:53.848Z,100296.50
2023-12-23T15:40:23.544Z,100306.44
2023-12-23T15:42:50.925Z,100304.94
2023-12-23T15:45:18.197Z,100308.31
2023-12-23T15:47:45.331Z,100293.00
2023-12-23T15:50:12.472Z,100307.53
2023-12-23T15:52:39.466Z,100294.06
2023-12-23T15:55:07.860Z,100299.13
2023-12-23T15:57:38.412Z,100299.78
2023-12-23T16:00:06.718Z,100295.44
2023-12-23T16:02:33.746Z,100292.41
2023-12-23T16:05:00.946Z,100312.94
2023-12-23T16:07:28.044Z,100302.72
2023-12-23T16:09:54.985Z,100319.88
2023-12-23T16:12:22.147Z,100322.22
2023-12-23T16:14:51.772Z,100314.69
2023-12-23T16:17:18.803Z,100314.53
2023-12-23T16:19:45.875Z,100336.22
2023-12-23T16:22:12.957Z,100321.06
2023-12-23T16:24:40.065Z,100315.03
2023-12-23T16:27:07.534Z,100318.25
2023-12-23T16:29:34.579Z,100318.72
2023-12-23T16:32:04.741Z,100315.88
2023-12-23T16:34:31.759Z,100320.09
2023-12-23T16:36:58.737Z,100317.41
2023-12-23T16:39:25.897Z,100309.31
2023-12-23T16:41:52.899Z,100324.50
2023-12-23T16:44:20.045Z,100305.63
2023-12-23T16:46:47.138Z,100301.75
2023-12-23T16:49:16.970Z,100317.91
2023-12-23T16:51:44.013Z,100305.28
2023-12-23T16:54:11.092Z,100307.66
2023-12-23T16:56:38.441Z,100301.28
2023-12-23T16:59:05.571Z,100306.31
2023-12-23T17:01:32.760Z,100315.94
2023-12-23T17:03:59.865Z,100320.47
2023-12-23T17:06:29.533Z,100331.25
2023-12-23T17:08:59.626Z,100318.47
2023-12-23T17:11:26.786Z,100314.94
2023-12-23T17:13:53.858Z,100311.03
2023-12-23T17:16:20.970Z,100323.34
2023-12-23T17:18:48.429Z,100325.22
2023-12-23T17:21:15.539Z,100322.50
2023-12-23T17:23:45.305Z,100316.44
2023-12-23T17:26:12.356Z,100324.19
2023-12-23T17:28:39.349Z,100346.75
2023-12-23T17:31:06.440Z,100339.69
2023-12-23T17:33:33.557Z,100324.91
2023-12-23T17:36:00.633Z,100332.28
2023-12-23T17:38:27.643Z,100344.41
2023-12-23T17:40:57.258Z,100356.88
2023-12-23T17:43:24.236Z,100348.16
2023-12-23T17:45:51.230Z,100352.34
2023-12-23T17:48:18.287Z,100360.97
2023-12-23T17:50:45.286Z,100362.81
2023-12-23T17:53:12.303Z,100363.50
2023-12-23T17:55:39.449Z,100366.19
2023-12-23T17:58:09.054Z,100356.91
2023-12-23T18:00:36.047Z,100367.53
2023-12-23T18:03:03.739Z,100368.38
2023-12-23T18:05:30.886Z,100367.03
2023-12-23T18:07:58.128Z,100362.47
2023-12-23T18:10:25.255Z,100371.09
2023-12-23T18:12:52.446Z,100364.84
2023-12-23T18:15:22.189Z,100366.69
2023-12-23T18:17:49.685Z,100371.41
2023-12-23T18:20:16.896Z,100369.91
2023-12-23T18:22:43.956Z,100366.19
2023-12-23T18:25:11.007Z,100376.13
2023-12-23T18:27:37.986Z,100371.06
2023-12-23T18:30:06.496Z,100367.84
2023-12-23T18:32:36.200Z,100373.09
2023-12-23T18:35:03.604Z,100374.94
2023-12-23T18:37:30.659Z,100381.19
2023-12-23T18:39:57.768Z,100379.47
2023-12-23T18:42:24.740Z,100388.59
2023-12-23T18:44:51.743Z,100395.16
2023-12-23T18:47:18.973Z,100388.59
2023-12-23T18:49:48.639Z,100383.53
2023-12-23T18:52:15.616Z,100401.38
2023-12-23T18:54:42.699Z,100397.19
2023-12-23T18:57:09.789Z,100400.03
2023-12-23T18:59:36.828Z,100400.19
2023-12-23T19:02:04.301Z,100402.69
2023-12-23T19:04:31.404Z,100401.69
2023-12-23T19:07:01.010Z,100412.31
2023-12-23T19:09:28.023Z,100406.94
2023-12-23T19:11:55.032Z,100404.25
2023-12-23T19:14:22.038Z,100406.78
2023-12-23T19:16:48.979Z,100392.91
2023-12-23T19:19:16.270Z,100406.03
2023-12-23T19:21:44.460Z,100405.16
2023-12-23T19:24:14.344Z,100394.88
2023-12-23T19:26:41.377Z,100390.81
2023-12-23T19:29:08.484Z,100380.88
2023-12-23T19:31:38.986Z,100383.38
2023-12-23T19:34:06.042Z,100377.78
2023-12-23T19:36:33.015Z,100385.34
2023-12-23T19:39:00.005Z,100376.28
2023-12-23T19:41:29.738Z,100390.03
2023-12-23T19:43:56.830Z,100388.72
2023-12-23T19:46:23.861Z,100403.47
2023-12-23T19:48:50.903Z,100407.78
2023-12-23T19:51:17.918Z,100408.09
2023-12-23T19:53:44.841Z,100409.56
2023-12-23T19:56:12.837Z,100414.84
2023-12-23T19:58:42.548Z,100418.72
2023-12-23T20:01:09.667Z,100411.00
2023-12-23T20:03:39.008Z,100403.56
2023-12-23T20:06:08.202Z,100404.41
2023-12-23T20:08:35.313Z,100401.63
2023-12-23T20:11:02.533Z,100417.47
2023-12-23T20:13:29.657Z,100401.31
2023-12-23T20:15:59.331Z,100393.72
2023-12-23T20:18:29.406Z,100387.72
2023-12-23T20:20:56.770Z,100401.00
2023-12-23T20:23:23.890Z,100393.38
2023-12-23T20:25:50.911Z,100395.28
2023-12-23T20:28:18.761Z,100391.47
2023-12-23T20:30:45.756Z,100399.69
2023-12-23T20:33:15.518Z,100394.31
2023-12-23T20:35:42.793Z,100400.22
2023-12-23T20:38:09.900Z,100407.94
2023-12-23T20:40:37.174Z,100407.75
2023-12-23T20:43:04.417Z,100406.59
2023-12-23T20:45:31.374Z,100409.44
2023-12-23T20:47:58.432Z,100415.47
2023-12-23T20:50:28.255Z,100401.84
2023-12-23T20:52:55.573Z,100400.47
2023-12-23T20:55:22.655Z,100406.19
2023-12-23T20:57:49.643Z,100415.41
2023-12-23T21:00:17.132Z,100390.31
2023-12-23T21:02:44.231Z,100410.72
2023-12-23T21:05:11.360Z,100403.09
2023-12-23T21:07:41.626Z,100381.25
2023-12-23T21:10:09.615Z,100391.72
2023-12-23T21:12:36.900Z,100409.16
2023-12-23T21:15:04.481Z,100407.47
2023-12-23T21:17:31.637Z,100400.16
2023-12-23T21:19:58.805Z,100399.88
2023-12-23T21:22:25.833Z,100400.84
2023-12-23T21:24:55.380Z,100406.25
2023-12-23T21:27:22.814Z,100408.31
2023-12-23T21:29:50.034Z,100403.22
2023-12-23T21:32:17.194Z,100400.94
2023-12-23T21:34:44.841Z,100400.38
2023-12-23T21:37:11.798Z,100414.19
2023-12-23T21:39:38.885Z,100401.44
2023-12-23T21:42:08.683Z,100401.78
2023-12-23T21:44:35.705Z,100394.69
2023-12-23T21:47:02.690Z,100404.63
2023-12-23T21:49:29.937Z,100400.53
2023-12-23T21:51:57.045Z,100408.81
2023-12-23T21:54:24.008Z,100395.00
2023-12-23T21:56:51.005Z,100390.47
2023-12-23T21:59:20.551Z,100394.47
2023-12-23T22:01:47.841Z,100400.84
2023-12-23T22:04:14.817Z,100400.47
2023-12-23T22:06:41.760Z,100401.94
2023-12-23T22:09:08.711Z,100405.34
2023-12-23T22:11:35.751Z,100405.63
2023-12-23T22:14:02.807Z,100404.56
2023-12-23T22:16:32.431Z,100403.56
2023-12-23T22:18:59.498Z,100412.47
2023-12-23T22:21:26.468Z,100414.47
2023-12-23T22:23:53.477Z,100405.41
2023-12-23T22:26:20.534Z,100424.53
2023-12-23T22:28:47.633Z,100426.34
2023-12-23T22:31:14.683Z,100426.16
2023-12-23T22:33:44.353Z,100442.28
2023-12-23T22:36:11.472Z,100421.94
2023-12-23T22:38:38.550Z,100433.84
2023-12-23T22:41:06.352Z,100433.22
2023-12-23T22:43:33.614Z,100437.25
2023-12-23T22:46:00.639Z,100431.53
2023-12-23T22:48:27.627Z,100425.72
2023-12-23T22:50:57.279Z,100429.16
2023-12-23T22:53:24.334Z,100422.09
2023-12-23T22:55:51.379Z,100414.66
2023-12-23T22:58:18.388Z,100421.41
2023-12-23T23:00:45.388Z,100424.78
2023-12-23T23:03:12.421Z,100406.81
2023-12-23T23:05:39.559Z,100429.88
2023-12-23T23:08:09.347Z,100410.00
2023-12-23T23:10:36.333Z,100393.28
2023-12-23T23:13:03.306Z,100388.41
2023-12-23T23:15:30.324Z,100396.03
2023-12-23T23:17:57.676Z,100395.84
2023-12-23T23:20:24.862Z,100394.03
2023-12-23T23:22:52.623Z,100391.88
2023-12-23T23:25:22.365Z,100396.78
2023-12-23T23:27:49.344Z,100382.03
2023-12-23T23:30:16.646Z,100392.94
2023-12-23T23:32:43.711Z,100387.41
2023-12-23T23:35:12.249Z,100394.47
2023-12-23T23:37:39.800Z,100405.47
2023-12-23T23:40:08.013Z,100403.63
2023-12-23T23:42:37.549Z,100406.31
2023-12-23T23:45:05.404Z,100402.59
2023-12-23T23:47:32.491Z,100408.31
2023-12-23T23:49:59.559Z,100411.50
2023-12-23T23:52:26.771Z,100407.16
2023-12-23T23:54:53.938Z,100419.06
2023-12-23T23:57:20.888Z,100409.16
2023-12-23T23:59:50.498Z,100405.97
